Time;durP1;ratioP1;P1;durP2;ratioP2;P2;SDS_P1;SDS_P2;PMS_P1;PMS_P2;Temp;Humidity;BMP_temperature;BMP_pressure;BME280_temperature;BME280_humidity;BME280_pressure;Samples;Min_cycle;Max_cycle;Signal;HPM_P1;HPM_P2
2022/09/06 00:01:36;;;;;;;5.28;4.43;;;19.90;99.90;;;;;;5052161;28;20033;-77
2022/09/06 00:04:01;;;;;;;8.48;4.18;;;19.80;99.90;;;;;;5072255;28;20105;-77
2022/09/06 00:06:27;;;;;;;9.75;6.03;;;19.70;99.90;;;;;;5055585;28;20052;-77
2022/09/06 00:08:53;;;;;;;8.18;4.82;;;19.70;99.90;;;;;;5055302;28;20578;-77
2022/09/06 00:11:18;;;;;;;5.55;4.40;;;19.60;99.90;;;;;;5054973;28;20052;-77
2022/09/06 00:13:45;;;;;;;7.05;4.30;;;19.60;99.90;;;;;;5038835;28;20086;-77
2022/09/06 00:16:16;;;;;;;8.77;5.28;;;19.50;99.90;;;;;;5055090;28;20044;-77
2022/09/06 00:18:43;;;;;;;8.50;5.72;;;19.40;99.90;;;;;;5055340;28;20675;-77
2022/09/06 00:21:25;;;;;;;10.68;6.60;;;19.40;99.90;;;;;;5055211;28;20041;-77
2022/09/06 00:23:50;;;;;;;;;;;19.40;99.90;;;;;;5056220;28;20093;-77
2022/09/06 00:26:16;;;;;;;7.85;4.93;;;19.30;99.90;;;;;;5054591;28;20317;-77
2022/09/06 00:28:42;;;;;;;6.45;4.72;;;19.20;99.90;;;;;;5054761;28;20045;-77
2022/09/06 00:31:16;;;;;;;10.98;6.10;;;19.20;99.90;;;;;;5055050;28;20051;-77
2022/09/06 00:33:42;;;;;;;13.48;6.00;;;19.20;99.90;;;;;;5055910;28;20070;-77
2022/09/06 00:36:08;;;;;;;12.73;6.72;;;19.20;99.90;;;;;;5057481;28;20123;-77
2022/09/06 00:38:34;;;;;;;10.30;5.35;;;19.20;99.90;;;;;;5063055;28;20045;-77
2022/09/06 00:41:00;;;;;;;7.57;4.93;;;19.10;99.90;;;;;;5060456;28;20040;-77
2022/09/06 00:43:26;;;;;;;7.00;4.97;;;19.10;99.90;;;;;;5054722;28;20120;-77
2022/09/06 00:45:53;;;;;;;6.57;4.63;;;19.10;99.90;;;;;;5054430;28;20183;-77
2022/09/06 00:48:20;;;;;;;9.55;4.72;;;19.00;99.90;;;;;;5054408;28;20071;-77
2022/09/06 00:50:48;;;;;;;5.55;4.85;;;19.00;99.90;;;;;;5054817;28;20036;-77
2022/09/06 00:53:15;;;;;;;7.32;5.10;;;19.00;99.90;;;;;;5054804;28;20083;-77
2022/09/06 00:55:41;;;;;;;10.65;5.65;;;19.00;99.90;;;;;;5054891;28;20044;-77
2022/09/06 00:58:08;;;;;;;6.70;5.90;;;19.00;99.90;;;;;;5054670;28;20036;-77
2022/09/06 01:00:33;;;;;;;6.93;5.50;;;18.90;99.90;;;;;;5054465;28;20118;-77
2022/09/06 01:02:59;;;;;;;6.50;5.05;;;18.80;99.90;;;;;;5054520;28;20145;-77
2022/09/06 01:05:34;;;;;;;5.55;4.82;;;18.80;99.90;;;;;;5054004;28;20537;-77
2022/09/06 01:08:14;;;;;;;9.30;6.68;;;18.80;99.90;;;;;;5054306;28;20546;-77
2022/09/06 01:11:04;;;;;;;7.93;5.15;;;18.70;99.90;;;;;;5054428;28;20076;-77
2022/09/06 01:13:39;;;;;;;9.60;5.22;;;18.70;99.90;;;;;;5037836;28;20052;-77
2022/09/06 01:16:17;;;;;;;5.88;5.05;;;18.70;99.90;;;;;;5054442;28;20391;-77
2022/09/06 01:18:48;;;;;;;10.23;5.57;;;18.70;99.90;;;;;;5054540;28;20402;-77
2022/09/06 01:21:23;;;;;;;8.57;5.55;;;18.60;99.90;;;;;;5054095;28;20503;-77
2022/09/06 01:24:27;;;;;;;11.25;5.82;;;18.70;99.90;;;;;;5054022;28;20048;-77
2022/09/06 01:27:32;;;;;;;6.75;4.60;;;18.70;99.90;;;;;;5054007;28;20048;-77
2022/09/06 01:30:09;;;;;;;8.68;5.40;;;18.60;99.90;;;;;;5023617;28;20594;-77
2022/09/06 01:33:07;;;;;;;5.75;4.93;;;18.60;99.90;;;;;;5072153;28;20036;-77
2022/09/06 01:35:38;;;;;;;5.40;4.90;;;18.60;99.90;;;;;;5053714;28;20048;-77
2022/09/06 01:38:06;;;;;;;6.37;5.07;;;18.60;99.90;;;;;;5053804;28;20032;-77
2022/09/06 01:40:35;;;;;;;7.43;5.43;;;18.60;99.90;;;;;;5071676;28;20130;-77
2022/09/06 01:43:04;;;;;;;6.20;5.47;;;18.60;99.90;;;;;;5053475;28;20384;-77
2022/09/06 01:45:41;;;;;;;8.02;5.60;;;18.60;99.90;;;;;;5071184;28;20056;-77
2022/09/06 01:48:19;;;;;;;8.68;5.95;;;18.60;99.90;;;;;;5053620;28;20053;-77
2022/09/06 01:51:03;;;;;;;8.38;5.95;;;18.60;99.90;;;;;;5053749;28;20048;-77
2022/09/06 01:53:43;;;;;;;11.05;5.65;;;18.70;99.90;;;;;;5053723;28;20044;-77
2022/09/06 01:56:18;;;;;;;18.85;8.80;;;18.70;99.90;;;;;;5052818;28;20060;-77
2022/09/06 01:59:02;;;;;;;18.10;7.32;;;18.60;99.90;;;;;;5053228;28;20093;-77
2022/09/06 02:01:41;;;;;;;20.25;8.23;;;18.70;99.90;;;;;;5053781;28;20391;-77
2022/09/06 02:04:25;;;;;;;16.23;8.73;;;18.70;99.90;;;;;;5053352;28;20123;-77
2022/09/06 02:07:00;;;;;;;9.55;5.90;;;18.60;99.90;;;;;;5053230;28;20121;-77
2022/09/06 02:09:32;;;;;;;7.07;5.20;;;18.60;99.90;;;;;;5053569;28;20511;-77
2022/09/06 02:12:00;;;;;;;7.03;5.22;;;18.60;99.90;;;;;;5053118;28;20068;-77
2022/09/06 02:14:42;;;;;;;7.32;5.40;;;18.60;99.90;;;;;;5053183;28;20087;-77
2022/09/06 02:17:12;;;;;;;7.63;5.65;;;18.60;99.90;;;;;;5053335;28;20065;-77
2022/09/06 02:19:53;;;;;;;6.50;5.43;;;18.60;99.90;;;;;;5053481;28;20036;-77
2022/09/06 02:22:23;;;;;;;11.20;5.47;;;18.60;99.90;;;;;;5053012;28;20556;-77
2022/09/06 02:24:52;;;;;;;7.57;5.53;;;18.60;99.90;;;;;;5053279;28;20395;-77
2022/09/06 02:27:18;;;;;;;6.57;5.38;;;18.60;99.90;;;;;;5052555;28;20059;-77
2022/09/06 02:29:44;;;;;;;9.00;5.90;;;18.60;99.90;;;;;;5052890;28;20079;-77
2022/09/06 02:32:13;;;;;;;9.40;5.80;;;18.60;99.90;;;;;;5052928;28;20044;-77
2022/09/06 02:34:39;;;;;;;7.63;5.35;;;18.60;99.90;;;;;;5052670;28;20056;-77
2022/09/06 02:37:06;;;;;;;9.95;5.75;;;18.60;99.90;;;;;;5070365;28;20036;-77
2022/09/06 02:39:32;;;;;;;6.88;5.50;;;18.60;99.90;;;;;;5052957;28;20438;-77
2022/09/06 02:41:59;;;;;;;8.68;6.18;;;18.60;99.90;;;;;;5052913;28;20050;-77
2022/09/06 02:44:25;;;;;;;7.85;5.80;;;18.60;99.90;;;;;;5052952;28;20044;-77
2022/09/06 02:46:50;;;;;;;11.75;5.68;;;18.60;99.90;;;;;;5052701;28;20051;-77
2022/09/06 02:49:16;;;;;;;7.35;4.95;;;18.60;99.90;;;;;;5052559;28;20048;-77
2022/09/06 02:51:42;;;;;;;8.50;5.30;;;18.60;99.90;;;;;;5052792;28;20094;-77
2022/09/06 02:54:07;;;;;;;8.10;5.28;;;18.60;99.90;;;;;;5052837;28;20070;-77
2022/09/06 02:56:35;;;;;;;8.27;5.72;;;18.70;99.90;;;;;;5035802;28;20483;-77
2022/09/06 02:59:03;;;;;;;7.40;6.20;;;18.70;99.90;;;;;;5052651;28;20043;-77
2022/09/06 03:01:29;;;;;;;5.85;5.25;;;18.70;99.90;;;;;;5052713;28;20115;-77
2022/09/06 03:03:55;;;;;;;7.97;5.45;;;18.60;99.90;;;;;;5052947;28;20432;-77
2022/09/06 03:06:21;;;;;;;8.13;5.53;;;18.60;99.90;;;;;;5035463;28;20051;-77
2022/09/06 03:08:46;;;;;;;7.57;5.15;;;18.60;99.90;;;;;;5052924;28;20379;-77
2022/09/06 03:11:12;;;;;;;8.50;5.00;;;18.60;99.90;;;;;;5052657;28;20040;-77
2022/09/06 03:13:38;;;;;;;5.88;5.28;;;18.50;99.90;;;;;;5052493;28;20040;-77
2022/09/06 03:16:04;;;;;;;9.25;6.15;;;18.60;99.90;;;;;;5035676;28;20037;-77
2022/09/06 03:18:30;;;;;;;6.43;5.03;;;18.50;99.90;;;;;;5052557;28;20036;-77
2022/09/06 03:20:56;;;;;;;7.30;5.93;;;18.50;99.90;;;;;;5052488;28;20406;-77
2022/09/06 03:23:25;;;;;;;5.53;5.00;;;18.50;99.90;;;;;;5052259;28;20043;-77
2022/09/06 03:25:50;;;;;;;15.40;7.45;;;18.50;99.90;;;;;;5051840;28;20082;-77
2022/09/06 03:28:17;;;;;;;8.77;5.97;;;18.50;99.90;;;;;;5052268;28;20036;-77
2022/09/06 03:30:45;;;;;;;10.27;6.00;;;18.40;99.90;;;;;;5052118;28;20036;-77
2022/09/06 03:33:11;;;;;;;6.32;5.40;;;18.50;99.90;;;;;;5052255;28;20040;-77
2022/09/06 03:35:37;;;;;;;6.18;5.07;;;18.50;99.90;;;;;;5051951;28;20487;-77
2022/09/06 03:38:02;;;;;;;6.93;5.18;;;18.50;99.90;;;;;;5053210;28;20044;-77
2022/09/06 03:40:28;;;;;;;9.48;5.80;;;18.50;99.90;;;;;;5056291;28;20045;-77
2022/09/06 03:42:54;;;;;;;8.52;5.47;;;18.50;99.90;;;;;;5056197;28;20040;-77
2022/09/06 03:45:19;;;;;;;7.22;5.43;;;18.50;99.90;;;;;;5055584;28;20040;-77
2022/09/06 03:47:45;;;;;;;9.38;5.72;;;18.50;99.90;;;;;;5055921;28;20090;-77
2022/09/06 03:50:11;;;;;;;6.95;5.53;;;18.50;99.90;;;;;;5062671;28;20052;-77
2022/09/06 03:52:36;;;;;;;7.53;5.28;;;18.40;99.90;;;;;;5062660;28;20041;-77
2022/09/06 03:55:03;;;;;;;8.75;6.47;;;18.30;99.90;;;;;;5073795;28;20044;-77
2022/09/06 03:57:28;;;;;;;9.65;5.80;;;18.40;99.90;;;;;;5055892;28;20036;-77
2022/09/06 03:59:54;;;;;;;10.23;7.35;;;18.40;99.90;;;;;;5055669;28;20048;-77
2022/09/06 04:02:19;;;;;;;11.63;7.28;;;18.40;99.90;;;;;;5073587;28;20095;-77
2022/09/06 04:04:45;;;;;;;15.23;8.23;;;18.40;99.90;;;;;;5055800;28;20047;-77
2022/09/06 04:07:11;;;;;;;10.73;6.60;;;18.40;99.90;;;;;;5055498;28;20055;-77
2022/09/06 04:09:36;;;;;;;10.38;5.78;;;18.40;99.90;;;;;;5055982;28;20052;-77
2022/09/06 04:12:03;;;;;;;8.70;6.05;;;18.40;99.90;;;;;;5055743;28;20083;-77
2022/09/06 04:14:28;;;;;;;9.95;6.53;;;18.30;99.90;;;;;;5055563;28;20037;-77
2022/09/06 04:16:54;;;;;;;12.52;8.35;;;18.30;99.90;;;;;;5055208;28;20040;-77
2022/09/06 04:19:20;;;;;;;9.85;7.20;;;18.30;99.90;;;;;;5055502;28;20398;-77
2022/09/06 04:21:45;;;;;;;17.23;8.50;;;18.30;99.90;;;;;;5073241;28;20029;-77
2022/09/06 04:24:11;;;;;;;12.20;7.72;;;18.30;99.90;;;;;;5055258;28;20040;-77
2022/09/06 04:26:37;;;;;;;13.77;8.02;;;18.20;99.90;;;;;;5054794;28;20444;-77
2022/09/06 04:29:02;;;;;;;10.30;7.03;;;18.30;99.90;;;;;;5038821;28;20045;-77
2022/09/06 04:31:28;;;;;;;13.30;7.38;;;18.20;99.90;;;;;;5055361;28;20123;-77
2022/09/06 04:33:54;;;;;;;13.13;8.63;;;18.20;99.90;;;;;;5055334;28;20052;-76
2022/09/06 04:36:19;;;;;;;9.10;7.45;;;18.20;99.90;;;;;;5054531;28;20056;-76
2022/09/06 04:38:45;;;;;;;10.52;7.97;;;18.20;99.90;;;;;;5055447;28;20036;-76
2022/09/06 04:41:14;;;;;;;11.70;8.32;;;18.20;99.90;;;;;;5055192;28;20547;-76
2022/09/06 04:43:40;;;;;;;9.90;8.15;;;18.20;99.90;;;;;;5038410;28;20048;-76
2022/09/06 04:46:19;;;;;;;10.00;7.78;;;18.10;99.90;;;;;;5072742;28;20051;-76
2022/09/06 04:48:46;;;;;;;12.27;8.43;;;18.00;99.90;;;;;;5055008;28;20072;-76
2022/09/06 04:51:11;;;;;;;10.98;7.45;;;18.00;99.90;;;;;;5055146;28;20048;-76
2022/09/06 04:53:37;;;;;;;11.60;7.97;;;18.00;99.90;;;;;;5054999;28;20036;-76
2022/09/06 04:56:02;;;;;;;10.90;7.95;;;17.90;99.90;;;;;;5072496;28;20119;-76
2022/09/06 04:58:28;;;;;;;10.40;8.40;;;17.90;99.90;;;;;;5054722;28;20048;-76
2022/09/06 05:00:53;;;;;;;9.40;8.25;;;17.80;99.90;;;;;;5054729;28;20407;-76
2022/09/06 05:03:19;;;;;;;14.02;8.52;;;17.80;99.90;;;;;;5055107;28;20606;-76
2022/09/06 05:05:45;;;;;;;10.27;8.30;;;17.80;99.90;;;;;;5055027;28;20162;-76
2022/09/06 05:08:10;;;;;;;11.57;9.27;;;17.80;99.90;;;;;;5054719;28;20040;-76
2022/09/06 05:10:36;;;;;;;16.95;9.20;;;17.80;99.90;;;;;;5054599;28;20036;-76
2022/09/06 05:13:01;;;;;;;9.27;7.72;;;17.80;99.90;;;;;;5054690;28;20048;-76
2022/09/06 05:15:27;;;;;;;12.55;9.07;;;17.70;99.90;;;;;;5037462;28;20040;-76
2022/09/06 05:17:59;;;;;;;10.25;9.10;;;17.70;99.90;;;;;;5054877;28;20399;-76
2022/09/06 05:20:25;;;;;;;14.45;8.85;;;17.60;99.90;;;;;;5054886;28;20037;-76
2022/09/06 05:22:52;;;;;;;12.95;9.18;;;17.60;99.90;;;;;;5072375;28;20043;-76
2022/09/06 05:25:17;;;;;;;12.02;9.68;;;17.50;99.90;;;;;;5054537;28;20051;-76
2022/09/06 05:27:43;;;;;;;14.07;9.15;;;17.40;99.90;;;;;;5037727;28;20477;-76
2022/09/06 05:30:09;;;;;;;15.18;9.20;;;17.40;99.90;;;;;;5037938;28;20036;-76
2022/09/06 05:32:35;;;;;;;13.88;10.10;;;17.40;99.90;;;;;;5054778;28;20110;-76
2022/09/06 05:35:00;;;;;;;15.32;9.32;;;17.40;99.90;;;;;;5053925;28;20483;-76
2022/09/06 05:37:26;;;;;;;12.30;9.18;;;17.30;99.90;;;;;;5054168;28;20032;-76
2022/09/06 05:39:51;;;;;;;12.57;9.95;;;17.40;99.90;;;;;;5054312;28;20379;-76
2022/09/06 05:42:17;;;;;;;14.23;9.95;;;17.30;99.90;;;;;;5054790;28;20052;-76
2022/09/06 05:44:43;;;;;;;14.32;10.45;;;17.30;99.90;;;;;;5054004;28;20105;-76
2022/09/06 05:47:08;;;;;;;13.00;9.43;;;17.20;99.90;;;;;;5053987;28;20581;-76
2022/09/06 05:49:34;;;;;;;14.32;10.40;;;17.20;99.90;;;;;;5037413;28;20357;-77
2022/09/06 05:51:59;;;;;;;14.77;10.38;;;17.30;99.90;;;;;;5054048;28;20109;-74
2022/09/06 05:54:25;;;;;;;13.82;10.55;;;17.30;99.90;;;;;;5053804;28;20040;-76
2022/09/06 05:56:52;;;;;;;15.68;10.95;;;17.40;99.90;;;;;;5053878;28;20246;-76
2022/09/06 05:59:17;;;;;;;13.68;9.95;;;17.40;99.90;;;;;;5054307;28;20564;-76
2022/09/06 06:01:48;;;;;;;14.30;10.25;;;17.50;99.90;;;;;;5052748;28;20040;-76
2022/09/06 06:04:14;;;;;;;16.30;10.65;;;17.50;99.90;;;;;;5053668;28;20559;-77
2022/09/06 06:06:39;;;;;;;16.90;10.88;;;17.50;99.90;;;;;;5036331;28;20074;-77
2022/09/06 06:09:05;;;;;;;18.17;10.52;;;17.60;99.90;;;;;;5053770;28;20044;-77
2022/09/06 06:11:31;;;;;;;21.10;10.70;;;17.70;99.90;;;;;;5053760;28;20378;-77
2022/09/06 06:13:57;;;;;;;16.00;9.82;;;17.70;99.90;;;;;;5053406;28;20040;-76
2022/09/06 06:16:24;;;;;;;14.70;9.80;;;17.70;99.90;;;;;;5053367;28;20036;-77
2022/09/06 06:18:50;;;;;;;14.85;10.45;;;17.80;99.90;;;;;;5053965;28;20040;-77
2022/09/06 06:21:21;;;;;;;13.32;10.60;;;17.80;99.90;;;;;;5036448;28;20550;-77
2022/09/06 06:23:50;;;;;;;13.68;11.00;;;17.90;99.90;;;;;;5036903;28;20032;-77
2022/09/06 06:26:17;;;;;;;13.68;10.77;;;17.90;99.90;;;;;;5070551;28;20044;-77
2022/09/06 06:28:43;;;;;;;14.40;10.35;;;17.90;99.90;;;;;;5053104;28;20040;-77
2022/09/06 06:31:11;;;;;;;12.65;11.25;;;17.90;99.90;;;;;;5071527;28;20028;-77
2022/09/06 06:33:37;;;;;;;13.75;9.95;;;18.00;99.90;;;;;;5053637;28;20041;-77
2022/09/06 06:36:19;;;;;;;12.98;10.55;;;18.00;99.90;;;;;;5053115;28;20040;-77
2022/09/06 06:38:45;;;;;;;14.45;11.80;;;18.10;99.90;;;;;;5052856;28;20059;-77
2022/09/06 06:41:13;;;;;;;15.68;12.23;;;18.10;99.90;;;;;;5053203;28;20111;-77
2022/09/06 06:43:39;;;;;;;13.73;10.70;;;18.20;99.90;;;;;;5036952;28;20036;-83
2022/09/06 06:46:13;;;;;;;14.50;10.07;;;18.30;99.90;;;;;;5053006;28;20068;-81
2022/09/06 06:48:40;;;;;;;20.05;10.25;;;18.40;99.90;;;;;;5036544;28;20119;-83
2022/09/06 06:51:07;;;;;;;14.73;10.38;;;18.50;99.90;;;;;;5036512;28;20524;-83
2022/09/06 06:53:34;;;;;;;35.58;13.65;;;18.50;99.90;;;;;;5056910;28;20095;-78
2022/09/06 06:56:00;;;;;;;18.13;11.90;;;18.60;99.90;;;;;;5075810;28;20071;-77
2022/09/06 06:58:26;;;;;;;17.13;11.77;;;18.60;99.90;;;;;;5041784;28;20052;-78
2022/09/06 07:00:52;;;;;;;16.40;12.10;;;18.70;99.90;;;;;;5057851;28;20491;-78
2022/09/06 07:03:18;;;;;;;17.88;12.15;;;18.70;99.90;;;;;;5059485;28;20043;-79
2022/09/06 07:05:45;;;;;;;17.58;11.63;;;18.70;99.90;;;;;;5043640;28;20046;-78
2022/09/06 07:08:11;;;;;;;13.48;10.77;;;18.70;99.90;;;;;;5060377;28;20394;-78
2022/09/06 07:10:37;;;;;;;12.20;10.93;;;18.80;99.90;;;;;;5058721;28;20048;-77
2022/09/06 07:13:03;;;;;;;15.60;11.15;;;19.00;99.90;;;;;;5043582;28;20054;-79
2022/09/06 07:15:29;;;;;;;12.70;11.40;;;18.90;99.90;;;;;;5079220;28;20048;-78
2022/09/06 07:17:55;;;;;;;18.67;12.05;;;19.10;99.90;;;;;;5080141;28;20032;-78
2022/09/06 07:20:22;;;;;;;16.35;11.02;;;19.40;99.90;;;;;;5081033;28;20044;-79
2022/09/06 07:23:01;;;;;;;17.88;11.70;;;20.10;99.90;;;;;;5081254;28;20036;-78
2022/09/06 07:25:27;;;;;;;14.98;11.13;;;20.90;99.90;;;;;;5081051;28;20137;-78
2022/09/06 07:28:02;;;;;;;14.27;10.45;;;21.90;99.90;;;;;;5062420;28;20121;-72
2022/09/06 07:30:29;;;;;;;13.05;10.02;;;22.60;99.90;;;;;;5045770;28;20040;-80
2022/09/06 07:32:55;;;;;;;10.13;9.07;;;23.30;99.90;;;;;;5063622;28;20390;-78
2022/09/06 07:35:21;;;;;;;14.80;9.75;;;23.90;99.90;;;;;;5078517;28;20046;-73
2022/09/06 07:37:57;;;;;;;13.25;8.98;;;24.50;99.90;;;;;;5063329;28;20040;-79
2022/09/06 08:54:58;;;;;;;8.23;6.03;;;28.10;92.10;;;;;;5077060;28;20414;-80
2022/09/06 08:57:42;;;;;;;7.07;6.38;;;29.40;80.50;;;;;;5075251;28;20419;-80
2022/09/06 09:00:12;;;;;;;7.03;5.50;;;29.20;88.10;;;;;;5073780;28;20040;-81
2022/09/06 09:02:42;;;;;;;6.53;5.85;;;29.10;88.40;;;;;;5074050;28;20068;-80
2022/09/06 09:05:18;;;;;;;8.77;6.03;;;29.10;87.20;;;;;;5074146;28;20136;-80
2022/09/06 09:08:01;;;;;;;7.20;5.57;;;28.90;86.40;;;;;;5068965;28;20138;-80
2022/09/06 09:10:31;;;;;;;7.53;5.32;;;29.10;88.30;;;;;;5050606;28;20732;-79
2022/09/06 09:13:01;;;;;;;7.43;6.38;;;29.20;88.60;;;;;;5068023;28;20043;-80
2022/09/06 09:15:27;;;;;;;9.18;6.10;;;29.10;88.40;;;;;;5067189;28;20484;-80
2022/09/06 09:17:53;;;;;;;8.70;5.43;;;29.20;87.50;;;;;;5066787;28;20072;-80
2022/09/06 09:20:20;;;;;;;8.77;6.00;;;29.30;86.50;;;;;;5066486;28;20044;-81
2022/09/06 09:22:47;;;;;;;7.80;5.50;;;29.20;86.30;;;;;;5067172;28;20059;-80
2022/09/06 09:25:21;;;;;;;10.52;6.78;;;29.30;85.50;;;;;;5050286;28;20033;-80
2022/09/06 09:27:56;;;;;;;9.60;6.90;;;29.30;84.40;;;;;;5067237;28;20366;-80
2022/09/06 09:30:22;;;;;;;9.23;7.05;;;29.30;84.80;;;;;;5049901;28;20045;-80
2022/09/06 09:32:48;;;;;;;7.78;6.63;;;29.40;83.90;;;;;;5049393;28;20049;-80
2022/09/06 09:35:28;;;;;;;6.97;6.30;;;29.50;82.60;;;;;;5049633;28;20044;-81
2022/09/06 09:38:08;;;;;;;6.60;5.72;;;29.40;81.70;;;;;;5066522;28;20040;-80
2022/09/06 09:40:40;;;;;;;9.02;6.28;;;29.40;84.00;;;;;;5049732;28;20123;-81
2022/09/06 09:43:20;;;;;;;7.50;6.10;;;29.50;84.70;;;;;;5067106;28;20101;-81
2022/09/06 09:45:56;;;;;;;6.60;5.78;;;29.80;81.50;;;;;;5066488;28;20049;-81
2022/09/06 09:48:26;;;;;;;13.20;6.90;;;29.70;83.30;;;;;;5049420;28;20048;-80
2022/09/06 09:50:53;;;;;;;7.93;6.47;;;29.80;81.20;;;;;;5065851;28;20037;-81
2022/09/06 09:53:21;;;;;;;9.13;7.28;;;29.90;82.20;;;;;;5060925;28;20250;-80
2022/09/06 09:55:53;;;;;;;9.73;7.00;;;30.00;82.30;;;;;;5053063;28;20382;-80
2022/09/06 09:58:35;;;;;;;8.07;7.25;;;30.30;82.30;;;;;;5052809;28;20049;-79
2022/09/06 10:01:18;;;;;;;7.72;6.38;;;30.40;80.50;;;;;;5052603;28;20099;-80
2022/09/06 10:03:44;;;;;;;8.02;7.13;;;30.50;78.90;;;;;;5035973;28;20458;-80
2022/09/06 10:06:12;;;;;;;8.40;6.65;;;30.30;78.90;;;;;;5036195;28;20041;-80
2022/09/06 10:08:42;;;;;;;10.55;5.90;;;30.30;78.00;;;;;;5053001;28;20044;-80
2022/09/06 10:11:14;;;;;;;6.30;5.70;;;30.20;79.70;;;;;;5052952;28;20448;-80
2022/09/06 10:13:43;;;;;;;5.65;4.80;;;30.10;76.30;;;;;;5052526;28;20323;-80
2022/09/06 11:33:03;;;;;;;10.93;4.55;;;28.90;72.20;;;;;;5128775;27;20398;-76
2022/09/06 11:35:31;;;;;;;7.50;5.13;;;29.30;71.00;;;;;;5090691;28;20452;-76
2022/09/06 11:38:20;;;;;;;8.85;4.93;;;29.20;72.50;;;;;;5108528;28;20119;-76
2022/09/06 11:40:51;;;;;;;6.35;3.70;;;29.20;71.50;;;;;;5107287;28;20044;-77
2022/09/06 11:43:39;;;;;;;5.18;3.70;;;29.30;71.40;;;;;;5106956;28;20132;-76
2022/09/06 11:46:05;;;;;;;5.80;3.63;;;29.50;71.40;;;;;;5107431;28;20043;-78
2022/09/06 11:48:35;;;;;;;7.07;4.88;;;29.40;70.80;;;;;;5107217;28;20051;-77
2022/09/06 11:51:05;;;;;;;7.85;4.00;;;29.50;69.40;;;;;;5107349;28;20046;-78
2022/09/06 11:53:57;;;;;;;5.68;2.90;;;29.50;69.30;;;;;;5106921;28;20061;-77
2022/09/06 11:56:31;;;;;;;;;;;29.60;68.50;;;;;;5106971;28;20122;-77
2022/09/06 11:59:13;;;;;;;7.47;4.07;;;29.50;67.80;;;;;;5107207;28;20076;-77
2022/09/06 12:01:39;;;;;;;9.48;3.90;;;29.50;70.60;;;;;;5106348;28;20416;-77
2022/09/06 12:04:06;;;;;;;4.63;3.35;;;29.40;71.10;;;;;;5106839;28;20071;-76
2022/09/06 12:07:07;;;;;;;6.95;3.63;;;29.30;70.10;;;;;;5106720;28;20043;-77
2022/09/06 12:09:45;;;;;;;4.37;2.80;;;29.40;69.30;;;;;;5106841;28;20040;-77
2022/09/06 12:12:30;;;;;;;5.35;3.45;;;29.40;68.40;;;;;;5106104;28;20071;-77
2022/09/06 12:14:56;;;;;;;5.15;3.13;;;29.40;69.20;;;;;;5106293;28;20055;-77
2022/09/06 12:17:23;;;;;;;3.88;3.03;;;29.40;69.60;;;;;;5106365;28;20036;-77
2022/09/06 12:19:52;;;;;;;4.80;3.25;;;29.50;69.30;;;;;;5106397;28;20036;-77
2022/09/06 12:22:35;;;;;;;4.75;3.60;;;29.50;68.90;;;;;;5106036;28;20051;-77
2022/09/06 12:25:04;;;;;;;4.97;3.45;;;29.50;68.60;;;;;;5106410;28;20040;-77
2022/09/06 12:28:09;;;;;;;3.33;2.90;;;29.70;68.00;;;;;;5107737;28;20035;-77
2022/09/06 12:30:41;;;;;;;7.43;2.80;;;29.90;66.80;;;;;;5105303;28;20055;-77
2022/09/06 12:33:15;;;;;;;4.75;2.53;;;29.90;67.00;;;;;;5095537;28;20423;-77
2022/09/06 12:35:40;;;;;;;3.00;1.98;;;29.90;66.30;;;;;;5092583;28;20051;-77
2022/09/06 12:38:11;;;;;;;3.38;3.00;;;30.00;66.20;;;;;;5092262;28;20667;-77
2022/09/06 12:40:44;;;;;;;3.65;2.45;;;30.10;64.80;;;;;;5092205;28;20040;-77
2022/09/06 12:43:12;;;;;;;3.42;2.45;;;30.10;64.90;;;;;;5093559;28;20406;-78
2022/09/06 12:45:47;;;;;;;2.55;2.30;;;30.10;66.00;;;;;;5092626;28;20123;-78
2022/09/06 12:48:29;;;;;;;4.03;2.70;;;30.20;63.30;;;;;;5092155;28;20044;-77
2022/09/06 12:51:05;;;;;;;;;;;30.40;62.20;;;;;;5092762;28;20122;-78
2022/09/06 12:53:33;;;;;;;3.58;2.80;;;30.30;62.00;;;;;;5075005;28;19920;-77
2022/09/06 12:56:07;;;;;;;4.75;2.45;;;30.20;63.40;;;;;;5092722;28;20063;-80
2022/09/06 12:58:34;;;;;;;5.35;2.30;;;30.00;62.70;;;;;;5097616;28;20056;-81
2022/09/06 13:01:13;;;;;;;4.30;2.10;;;29.90;62.90;;;;;;5098971;28;20040;-79
2022/09/06 13:03:48;;;;;;;3.00;2.28;;;30.00;62.60;;;;;;5097072;28;20089;-76
2022/09/06 13:06:20;;;;;;;5.50;2.00;;;30.10;60.90;;;;;;5089826;28;20047;-79
2022/09/06 13:08:52;;;;;;;4.13;2.28;;;30.20;60.90;;;;;;5092311;28;20070;-79
2022/09/06 13:11:27;;;;;;;5.82;2.40;;;30.20;60.90;;;;;;5092700;28;20431;-79
2022/09/06 13:13:54;;;;;;;2.88;2.28;;;30.00;60.90;;;;;;5074610;28;20044;-79
2022/09/06 13:16:21;;;;;;;4.47;2.13;;;29.80;60.90;;;;;;5078472;28;20283;-81
2022/09/06 13:18:47;;;;;;;3.58;2.58;;;29.90;62.50;;;;;;5086712;28;20040;-81
2022/09/06 13:21:32;;;;;;;4.13;2.13;;;30.00;61.60;;;;;;5087511;28;20050;-81
2022/09/06 13:24:02;;;;;;;4.30;2.50;;;30.20;60.60;;;;;;5086905;28;20438;-81
2022/09/06 13:26:38;;;;;;;2.95;2.50;;;30.10;60.50;;;;;;5102255;28;20035;-82
2022/09/06 13:29:15;;;;;;;8.25;2.40;;;30.00;62.00;;;;;;5094543;28;20044;-79
2022/09/06 13:31:53;;;;;;;4.13;2.97;;;30.10;59.90;;;;;;5091253;28;20553;-79
2022/09/06 13:34:20;;;;;;;3.22;2.80;;;30.00;59.70;;;;;;5091453;28;20059;-79
2022/09/06 13:37:04;;;;;;;6.13;2.90;;;30.00;60.10;;;;;;5091841;28;20066;-79
2022/09/06 13:39:38;;;;;;;2.83;2.30;;;30.20;59.90;;;;;;5075497;28;20054;-79
2022/09/06 13:42:21;;;;;;;2.85;2.10;;;30.40;59.80;;;;;;5091727;28;20094;-79
2022/09/06 13:44:50;;;;;;;3.42;2.50;;;30.60;59.10;;;;;;5090608;28;20105;-78
2022/09/06 13:47:16;;;;;;;3.85;2.15;;;30.60;58.30;;;;;;5091612;28;20085;-79
2022/09/06 13:49:42;;;;;;;4.00;2.60;;;30.80;58.80;;;;;;5074503;28;20052;-79
2022/09/06 13:52:08;;;;;;;5.63;2.20;;;30.80;57.90;;;;;;5074575;28;20515;-79
2022/09/06 13:54:38;;;;;;;2.90;2.20;;;30.80;57.90;;;;;;5074323;28;20458;-79
2022/09/06 13:57:04;;;;;;;3.40;2.47;;;30.80;58.20;;;;;;5074990;28;20505;-79
2022/09/06 13:59:36;;;;;;;2.60;2.40;;;30.70;57.50;;;;;;5074076;28;20127;-79
2022/09/06 14:02:16;;;;;;;3.05;2.00;;;30.60;57.20;;;;;;5074461;28;20059;-80
2022/09/06 14:04:59;;;;;;;4.03;2.08;;;30.60;56.30;;;;;;5075982;28;20057;-80
2022/09/06 14:07:25;;;;;;;6.45;2.08;;;30.50;56.60;;;;;;5072659;28;20135;-80
2022/09/06 14:09:51;;;;;;;2.58;1.85;;;30.30;57.00;;;;;;5055739;28;20033;-80
2022/09/06 14:12:16;;;;;;;1.92;1.70;;;30.00;58.00;;;;;;5072531;28;20036;-80
2022/09/06 14:14:43;;;;;;;5.47;2.33;;;29.70;58.20;;;;;;5055973;28;20674;-80
2022/09/06 14:17:09;;;;;;;2.30;1.85;;;29.60;58.50;;;;;;5055884;28;20496;-80
2022/09/06 14:19:35;;;;;;;4.32;2.10;;;29.50;58.80;;;;;;5056039;28;20044;-80
2022/09/06 14:22:01;;;;;;;3.55;2.13;;;29.50;58.40;;;;;;5055249;28;20044;-80
2022/09/06 14:24:27;;;;;;;6.18;2.33;;;29.40;58.70;;;;;;5067220;28;20056;-79
2022/09/06 14:26:52;;;;;;;4.80;2.58;;;29.60;58.90;;;;;;5071586;28;20037;-79
2022/09/06 14:29:18;;;;;;;2.60;2.40;;;29.60;59.30;;;;;;5076230;28;20403;-79
2022/09/06 14:31:44;;;;;;;3.33;2.00;;;29.70;59.00;;;;;;5075385;28;20040;-78
2022/09/06 14:34:10;;;;;;;2.70;2.30;;;30.00;58.70;;;;;;5075625;28;20044;-79
2022/09/06 14:36:35;;;;;;;2.65;2.45;;;30.10;58.10;;;;;;5071380;28;20048;-79
2022/09/06 14:39:01;;;;;;;3.63;1.70;;;30.10;57.70;;;;;;5071721;28;20052;-78
2022/09/06 14:41:27;;;;;;;4.90;2.17;;;30.10;58.10;;;;;;5071998;28;20515;-78
2022/09/06 14:43:55;;;;;;;2.20;2.00;;;30.10;57.20;;;;;;5071855;28;20412;-79
2022/09/06 14:46:23;;;;;;;2.65;2.20;;;30.20;56.80;;;;;;5071994;28;20041;-79
2022/09/06 14:48:55;;;;;;;3.50;1.92;;;30.10;58.30;;;;;;5073317;28;20062;-79
2022/09/06 14:51:22;;;;;;;2.40;2.20;;;30.10;57.70;;;;;;5073589;28;20166;-79
2022/09/06 14:53:49;;;;;;;6.10;1.90;;;30.20;58.00;;;;;;5074465;28;20044;-79
2022/09/06 14:56:15;;;;;;;4.22;2.60;;;30.30;57.80;;;;;;5072215;28;20482;-78
2022/09/06 14:58:42;;;;;;;4.43;2.60;;;30.20;57.90;;;;;;5073031;28;20047;-79
2022/09/06 15:01:20;;;;;;;4.68;2.45;;;30.30;58.30;;;;;;5069758;28;20468;-78
2022/09/06 15:03:52;;;;;;;4.50;2.28;;;30.30;57.90;;;;;;5071515;28;20506;-79
2022/09/06 15:06:20;;;;;;;3.85;2.40;;;30.10;59.00;;;;;;5069342;28;20045;-79
2022/09/06 15:08:47;;;;;;;3.00;2.20;;;30.20;59.20;;;;;;5070377;28;20406;-79
2022/09/06 15:11:14;;;;;;;7.97;2.90;;;30.30;59.10;;;;;;5071964;28;20056;-79
2022/09/06 15:13:41;;;;;;;4.50;2.45;;;30.20;58.80;;;;;;5069712;28;20511;-78
2022/09/06 15:16:09;;;;;;;4.00;2.40;;;30.00;59.00;;;;;;5072925;28;20141;-79
2022/09/06 15:18:34;;;;;;;6.85;2.38;;;29.90;59.10;;;;;;5054392;28;20467;-79
2022/09/06 15:21:11;;;;;;;5.43;2.50;;;29.90;59.10;;;;;;5070400;28;20076;-78
2022/09/06 15:23:38;;;;;;;4.97;2.60;;;29.80;60.90;;;;;;5071964;28;20150;-79
2022/09/06 15:26:06;;;;;;;4.53;2.78;;;29.70;59.70;;;;;;5070224;28;20420;-79
2022/09/06 15:28:34;;;;;;;3.53;2.70;;;29.70;59.10;;;;;;5070057;28;20595;-78